Time;durP1;ratioP1;P1;durP2;ratioP2;P2;SDS_P1;SDS_P2;PMS_P1;PMS_P2;Temp;Humidity;BMP_temperature;BMP_pressure;BME280_temperature;BME280_humidity;BME280_pressure;Samples;Min_cycle;Max_cycle;Signal;HPM_P1;HPM_P2
2022/07/11 00:02:17;;;;;;;10.57;4.33;;;23.30;54.00;;;;;;5044783;28;20290;-91
2022/07/11 00:04:45;;;;;;;10.63;4.07;;;23.30;54.20;;;;;;5048042;28;20268;-89
2022/07/11 00:07:12;;;;;;;17.03;6.37;;;23.20;54.30;;;;;;5044933;28;20244;-89
2022/07/11 00:09:39;;;;;;;7.03;3.73;;;23.10;54.50;;;;;;5048806;28;20248;-89
2022/07/11 00:12:08;;;;;;;15.53;6.00;;;23.10;54.60;;;;;;5046847;28;20265;-89
2022/07/11 00:14:35;;;;;;;9.03;3.97;;;23.00;54.60;;;;;;5047488;28;20269;-89
2022/07/11 00:17:04;;;;;;;7.40;3.57;;;22.90;54.70;;;;;;5046942;28;20224;-90
2022/07/11 00:19:31;;;;;;;8.57;4.10;;;22.90;55.00;;;;;;5047073;28;20204;-90
2022/07/11 00:21:58;;;;;;;7.73;3.23;;;22.90;55.00;;;;;;5047564;28;20208;-90
2022/07/11 00:24:26;;;;;;;8.97;3.90;;;22.80;55.10;;;;;;5046069;28;20253;-91
2022/07/11 00:26:53;;;;;;;9.20;3.63;;;22.70;55.10;;;;;;5047829;28;20683;-90
2022/07/11 00:29:20;;;;;;;11.53;4.53;;;22.70;55.30;;;;;;5046777;28;20704;-91
2022/07/11 00:31:47;;;;;;;11.33;4.87;;;22.60;55.30;;;;;;5048286;28;20232;-89
2022/07/11 00:34:18;;;;;;;12.17;5.57;;;22.60;55.50;;;;;;5045949;28;20208;-91
2022/07/11 00:36:47;;;;;;;10.13;4.83;;;22.60;55.80;;;;;;5046119;28;20204;-89
2022/07/11 00:39:14;;;;;;;10.70;4.73;;;22.50;55.90;;;;;;5053641;28;20258;-87
2022/07/11 00:41:41;;;;;;;6.73;2.93;;;22.50;55.60;;;;;;5054847;28;20212;-89
2022/07/11 00:44:10;;;;;;;10.53;4.13;;;22.50;55.70;;;;;;5048336;28;20205;-89
2022/07/11 00:46:37;;;;;;;8.23;3.47;;;22.40;55.90;;;;;;5049782;28;20266;-89
2022/07/11 00:49:06;;;;;;;16.60;5.73;;;22.40;55.80;;;;;;5052472;28;20192;-91
2022/07/11 00:51:34;;;;;;;9.27;4.23;;;22.40;56.10;;;;;;5048747;28;20209;-91
2022/07/11 00:54:02;;;;;;;10.33;3.60;;;22.30;56.10;;;;;;5048612;28;20211;-89
2022/07/11 00:56:30;;;;;;;12.37;4.80;;;22.30;56.20;;;;;;5048854;28;20834;-87
2022/07/11 00:58:59;;;;;;;15.70;6.00;;;22.20;56.20;;;;;;5056112;28;20278;-88
2022/07/11 01:01:26;;;;;;;15.13;5.70;;;22.20;56.20;;;;;;5049314;28;20204;-89
2022/07/11 01:03:53;;;;;;;9.47;4.13;;;22.20;56.20;;;;;;5051957;28;20235;-89
2022/07/11 01:06:21;;;;;;;8.60;3.60;;;22.10;56.20;;;;;;5049923;28;20225;-89
2022/07/11 01:08:50;;;;;;;10.00;4.13;;;22.10;56.50;;;;;;5048500;28;20204;-88
2022/07/11 01:11:18;;;;;;;8.30;3.70;;;22.10;56.70;;;;;;5047018;28;20352;-89
2022/07/11 01:13:46;;;;;;;8.17;3.90;;;22.00;56.70;;;;;;5045697;28;20231;-89
2022/07/11 01:16:15;;;;;;;9.30;4.07;;;22.00;56.60;;;;;;5047702;28;20294;-89
2022/07/11 01:18:44;;;;;;;6.37;3.53;;;22.00;56.90;;;;;;5045988;28;20207;-89
2022/07/11 01:21:24;;;;;;;9.10;3.83;;;21.90;56.90;;;;;;5045849;28;20230;-90
2022/07/11 01:23:57;;;;;;;9.73;4.17;;;21.90;57.30;;;;;;5041993;28;20207;-89
2022/07/11 01:26:26;;;;;;;20.93;7.67;;;21.80;57.10;;;;;;5043982;28;20600;-89
2022/07/11 01:28:55;;;;;;;7.37;3.63;;;21.80;57.10;;;;;;5047455;28;20587;-90
2022/07/11 01:31:22;;;;;;;13.70;5.23;;;21.80;57.10;;;;;;5038666;28;21041;-89
2022/07/11 01:33:49;;;;;;;10.20;4.67;;;21.70;57.00;;;;;;5036791;28;20204;-89
2022/07/11 01:36:16;;;;;;;11.23;4.90;;;21.70;57.00;;;;;;5036146;28;20260;-90
2022/07/11 01:38:43;;;;;;;19.03;7.07;;;21.70;57.00;;;;;;5035543;28;20302;-89
2022/07/11 01:41:12;;;;;;;12.50;5.30;;;21.70;57.00;;;;;;5037702;28;20204;-89
2022/07/11 01:43:39;;;;;;;11.07;4.60;;;21.70;57.00;;;;;;5036054;28;20638;-90
2022/07/11 01:46:08;;;;;;;14.13;5.50;;;21.60;57.10;;;;;;5034723;28;20277;-89
2022/07/11 01:48:35;;;;;;;16.87;5.63;;;21.70;57.40;;;;;;5035841;28;20249;-90
2022/07/11 01:51:02;;;;;;;11.70;5.07;;;21.60;57.00;;;;;;5034948;28;20734;-89
2022/07/11 01:53:29;;;;;;;13.87;6.17;;;21.60;57.00;;;;;;5035748;28;20236;-89
2022/07/11 01:55:58;;;;;;;13.00;5.87;;;21.60;57.10;;;;;;5036125;28;20227;-89
2022/07/11 01:58:29;;;;;;;16.30;6.70;;;21.60;57.40;;;;;;5034730;28;20709;-91
2022/07/11 02:00:56;;;;;;;13.83;5.97;;;21.50;57.90;;;;;;5036097;28;20681;-89
2022/07/11 02:03:23;;;;;;;16.60;6.97;;;21.50;57.80;;;;;;5035636;28;20205;-88
2022/07/11 02:05:50;;;;;;;14.40;5.70;;;21.50;57.80;;;;;;5036090;28;20196;-89
2022/07/11 02:08:18;;;;;;;11.70;5.90;;;21.40;57.90;;;;;;5035784;28;20232;-90
2022/07/11 02:10:46;;;;;;;12.33;5.70;;;21.40;58.00;;;;;;5034334;28;20754;-90
2022/07/11 02:13:14;;;;;;;13.87;5.83;;;21.40;57.90;;;;;;5034520;28;20201;-88
2022/07/11 02:15:44;;;;;;;12.10;5.73;;;21.30;58.00;;;;;;5035703;28;20209;-89
2022/07/11 02:18:12;;;;;;;11.03;5.10;;;21.30;58.50;;;;;;5038821;28;20219;-89
2022/07/11 02:20:41;;;;;;;17.33;7.23;;;21.20;58.40;;;;;;5050098;28;20715;-90
2022/07/11 02:23:08;;;;;;;12.10;5.57;;;21.20;58.50;;;;;;5055062;28;20189;-89
2022/07/11 02:25:38;;;;;;;15.87;5.87;;;21.20;58.60;;;;;;5047129;28;20221;-89
2022/07/11 02:28:11;;;;;;;8.80;4.30;;;21.10;58.30;;;;;;5051078;28;20528;-89
2022/07/11 02:30:45;;;;;;;16.10;7.50;;;21.10;58.70;;;;;;5048723;28;20681;-89
2022/07/11 02:33:15;;;;;;;9.73;5.33;;;21.10;58.70;;;;;;5053540;28;20203;-90
2022/07/11 02:35:42;;;;;;;10.37;5.47;;;21.10;58.30;;;;;;5050749;28;20218;-90
2022/07/11 02:38:09;;;;;;;12.07;6.10;;;21.00;58.50;;;;;;5050977;28;20208;-90
2022/07/11 02:40:37;;;;;;;24.40;9.00;;;21.00;58.70;;;;;;5048241;28;20824;-89
2022/07/11 02:43:05;;;;;;;12.53;5.80;;;21.00;58.90;;;;;;5051930;28;20668;-89
2022/07/11 02:45:36;;;;;;;16.20;6.70;;;21.00;59.10;;;;;;5048863;28;20243;-90
2022/07/11 02:48:10;;;;;;;9.97;5.70;;;20.90;59.10;;;;;;5050704;28;20223;-90
2022/07/11 02:50:37;;;;;;;20.23;8.43;;;20.90;59.30;;;;;;5048346;28;20228;-90
2022/07/11 02:53:04;;;;;;;13.87;8.00;;;20.80;58.70;;;;;;5049206;28;20556;-90
2022/07/11 02:55:31;;;;;;;24.77;10.97;;;20.80;58.80;;;;;;5049756;28;20209;-90
2022/07/11 02:58:01;;;;;;;16.83;8.47;;;20.80;58.80;;;;;;5045508;28;20285;-91
2022/07/11 03:00:31;;;;;;;13.73;7.23;;;20.80;59.20;;;;;;5047946;28;20208;-89
2022/07/11 03:02:58;;;;;;;12.93;7.47;;;20.80;59.30;;;;;;5051406;28;20242;-89
2022/07/11 03:05:28;;;;;;;13.30;7.30;;;20.70;59.30;;;;;;5051320;28;20285;-90
2022/07/11 03:07:58;;;;;;;13.17;7.43;;;20.70;59.60;;;;;;5051283;28;20665;-89
2022/07/11 03:10:25;;;;;;;13.60;7.67;;;20.70;59.70;;;;;;5049023;28;20323;-90
2022/07/11 03:12:53;;;;;;;11.07;7.03;;;20.70;59.50;;;;;;5046119;28;20285;-89
2022/07/11 03:15:21;;;;;;;22.17;9.57;;;20.60;60.00;;;;;;5048274;28;20620;-89
2022/07/11 03:17:48;;;;;;;15.10;7.90;;;20.60;59.50;;;;;;5053525;28;20221;-90
2022/07/11 03:20:16;;;;;;;26.87;10.93;;;20.60;59.60;;;;;;5057810;28;20203;-89
2022/07/11 03:22:50;;;;;;;8.53;6.13;;;20.60;59.70;;;;;;5054318;28;20224;-89
2022/07/11 03:25:17;;;;;;;25.63;11.40;;;20.50;60.10;;;;;;5052182;28;20286;-92
2022/07/11 03:27:46;;;;;;;16.13;8.97;;;20.50;59.80;;;;;;5049032;28;20200;-89
2022/07/11 03:30:14;;;;;;;16.90;8.93;;;20.40;59.90;;;;;;5031904;28;20968;-89
2022/07/11 03:32:41;;;;;;;18.63;9.50;;;20.40;60.00;;;;;;5049997;28;20289;-90
2022/07/11 03:37:55;;;;;;;16.47;7.07;;;20.40;60.30;;;;;;5040471;28;20231;-87
2022/07/11 03:40:22;;;;;;;14.20;7.70;;;20.30;60.30;;;;;;5053305;28;20235;-90
2022/07/11 03:42:49;;;;;;;11.50;6.83;;;20.30;60.30;;;;;;5060452;28;20231;-92
2022/07/11 03:45:18;;;;;;;14.10;7.30;;;20.30;60.30;;;;;;5059987;28;20307;-90
2022/07/11 03:47:47;;;;;;;12.67;7.53;;;20.30;60.30;;;;;;5060170;28;20204;-90
2022/07/11 03:50:17;;;;;;;12.50;7.10;;;20.20;60.20;;;;;;5052537;28;20318;-90
2022/07/11 03:52:45;;;;;;;11.37;7.27;;;20.20;60.10;;;;;;5031978;28;20209;-90
2022/07/11 03:55:24;;;;;;;13.47;8.53;;;20.20;59.80;;;;;;5038216;28;20254;-90
2022/07/11 03:57:52;;;;;;;14.27;8.40;;;20.20;59.90;;;;;;5050151;28;20239;-91
2022/07/11 04:00:19;;;;;;;14.17;8.70;;;20.20;59.80;;;;;;5042849;28;20364;-90
2022/07/11 04:02:46;;;;;;;15.43;8.90;;;20.20;59.90;;;;;;5049200;28;20724;-92
2022/07/11 04:05:14;;;;;;;16.17;8.53;;;20.20;60.20;;;;;;5047586;28;20301;-89
2022/07/11 04:07:41;;;;;;;14.77;8.87;;;20.20;60.40;;;;;;5049162;28;20192;-90
2022/07/11 04:10:09;;;;;;;14.60;8.77;;;20.20;60.20;;;;;;5047707;28;20219;-90
2022/07/11 04:12:38;;;;;;;15.13;9.60;;;20.20;60.20;;;;;;5048465;28;20244;-90
2022/07/11 04:15:12;;;;;;;14.33;9.57;;;20.10;60.10;;;;;;5047182;28;20208;-89
2022/07/11 04:17:39;;;;;;;21.23;11.50;;;20.10;60.10;;;;;;5046558;28;20225;-90
2022/07/11 04:20:08;;;;;;;23.13;12.17;;;20.10;60.20;;;;;;5048434;28;20212;-90
2022/07/11 04:22:36;;;;;;;18.97;12.03;;;20.10;60.20;;;;;;5042351;28;20204;-92
2022/07/11 04:25:03;;;;;;;16.73;12.10;;;20.10;60.30;;;;;;5040270;28;20300;-92
2022/07/11 04:27:31;;;;;;;18.03;11.17;;;20.00;60.80;;;;;;5049082;28;20325;-93
2022/07/11 04:30:02;;;;;;;17.47;11.67;;;20.00;60.90;;;;;;5049021;28;20204;-91
2022/07/11 04:32:29;;;;;;;16.27;11.20;;;20.00;60.80;;;;;;5047354;28;20767;-90
2022/07/11 04:34:56;;;;;;;24.83;13.53;;;20.00;61.10;;;;;;5044824;28;20282;-91
2022/07/11 04:37:26;;;;;;;21.53;12.90;;;20.00;61.60;;;;;;5041551;28;20263;-89
2022/07/11 04:39:54;;;;;;;22.10;12.27;;;20.00;61.90;;;;;;5044601;28;20232;-92
2022/07/11 04:42:21;;;;;;;23.90;13.73;;;19.90;62.00;;;;;;5040465;28;20195;-90
2022/07/11 04:44:48;;;;;;;22.20;12.10;;;19.90;62.00;;;;;;5042241;28;20200;-91
2022/07/11 04:47:16;;;;;;;23.07;12.73;;;19.90;62.20;;;;;;5043415;28;20208;-89
2022/07/11 04:49:46;;;;;;;20.63;11.90;;;19.90;62.70;;;;;;5045945;28;20205;-90
2022/07/11 04:52:13;;;;;;;15.77;10.90;;;19.90;62.70;;;;;;5049328;28;20325;-91
2022/07/11 04:54:40;;;;;;;27.60;13.80;;;19.90;62.30;;;;;;5040597;28;20242;-93
2022/07/11 04:57:07;;;;;;;20.40;12.03;;;19.90;62.10;;;;;;5037731;28;20500;-92
2022/07/11 04:59:35;;;;;;;19.17;12.27;;;19.90;62.40;;;;;;5040848;28;20215;-92
2022/07/11 05:02:05;;;;;;;29.40;15.10;;;19.90;62.80;;;;;;5038128;28;20290;-89
2022/07/11 05:04:39;;;;;;;20.37;12.27;;;19.90;63.00;;;;;;5045276;28;20214;-89
2022/07/11 05:07:06;;;;;;;17.80;11.80;;;19.90;63.50;;;;;;5044038;28;20789;-89
2022/07/11 05:09:33;;;;;;;26.50;13.73;;;19.90;63.10;;;;;;5046702;28;20749;-89
2022/07/11 05:12:00;;;;;;;23.10;12.97;;;19.90;63.30;;;;;;5039989;28;20220;-89
2022/07/11 05:14:27;;;;;;;24.57;12.90;;;19.90;63.30;;;;;;5039862;28;20252;-89
2022/07/11 05:16:54;;;;;;;18.77;12.07;;;19.90;63.40;;;;;;5045371;28;20695;-90
2022/07/11 05:19:21;;;;;;;28.67;14.70;;;19.90;63.60;;;;;;5041694;28;20311;-89
2022/07/11 05:21:49;;;;;;;17.80;11.63;;;20.00;64.50;;;;;;5052041;28;20208;-88
2022/07/11 05:24:18;;;;;;;18.03;11.30;;;20.00;63.50;;;;;;5049930;28;20259;-89
2022/07/11 05:26:46;;;;;;;24.87;13.10;;;20.00;63.20;;;;;;5045892;28;20236;-89
2022/07/11 05:29:17;;;;;;;18.47;11.10;;;20.00;63.50;;;;;;5048486;28;20294;-89
2022/07/11 05:31:50;;;;;;;22.20;11.67;;;20.00;63.30;;;;;;5052475;28;20223;-90
2022/07/11 05:34:17;;;;;;;19.80;12.30;;;20.10;63.70;;;;;;5050145;28;20205;-90
2022/07/11 05:36:48;;;;;;;30.30;15.40;;;20.10;63.90;;;;;;5043232;28;20196;-89
2022/07/11 05:39:16;;;;;;;19.47;13.60;;;20.10;63.90;;;;;;5049925;28;20235;-90
2022/07/11 05:41:43;;;;;;;25.97;16.27;;;20.20;63.70;;;;;;5051384;28;20208;-89
2022/07/11 05:44:11;;;;;;;23.93;16.50;;;20.20;64.30;;;;;;5049109;28;20243;-90
2022/07/11 05:46:39;;;;;;;25.43;15.63;;;20.30;64.90;;;;;;5045991;28;20199;-90
2022/07/11 05:49:07;;;;;;;22.37;15.90;;;20.30;65.20;;;;;;5051526;28;20204;-91
2022/07/11 05:51:38;;;;;;;22.97;16.40;;;20.40;65.40;;;;;;5046010;28;20300;-90
2022/07/11 05:54:07;;;;;;;22.77;15.67;;;20.40;66.10;;;;;;5038016;28;20237;-89
2022/07/11 05:56:34;;;;;;;23.27;15.63;;;20.50;66.10;;;;;;5046625;28;20239;-90
2022/07/11 05:59:01;;;;;;;23.43;14.60;;;20.50;65.80;;;;;;5050575;28;20283;-87
2022/07/11 06:01:31;;;;;;;20.83;13.40;;;20.50;65.80;;;;;;5053656;28;20668;-90
2022/07/11 06:04:00;;;;;;;21.80;13.47;;;20.60;66.30;;;;;;5053716;28;20464;-89
2022/07/11 06:06:28;;;;;;;17.17;11.73;;;20.70;66.50;;;;;;5033474;28;20236;-89
2022/07/11 06:08:55;;;;;;;30.60;14.53;;;20.70;66.50;;;;;;5031841;28;20661;-90
2022/07/11 06:11:23;;;;;;;20.03;11.93;;;20.80;66.70;;;;;;5050160;28;20323;-90
2022/07/11 06:13:50;;;;;;;15.50;10.10;;;20.80;67.00;;;;;;5048566;28;20238;-91
2022/07/11 06:16:18;;;;;;;23.83;12.73;;;20.90;67.20;;;;;;5047525;28;20219;-87
2022/07/11 06:18:47;;;;;;;18.80;10.93;;;21.00;68.60;;;;;;5056465;28;20212;-88
2022/07/11 06:21:14;;;;;;;14.33;10.10;;;21.10;68.50;;;;;;5057723;28;20215;-87
2022/07/11 06:23:42;;;;;;;15.67;9.87;;;21.10;68.10;;;;;;5057218;28;20442;-87
2022/07/11 06:26:11;;;;;;;18.20;10.50;;;21.20;68.10;;;;;;5054604;28;20289;-90
2022/07/11 06:28:40;;;;;;;15.27;8.97;;;21.20;68.50;;;;;;5050322;28;20324;-90
2022/07/11 06:31:09;;;;;;;17.63;10.00;;;21.30;68.50;;;;;;5054097;28;20241;-90
2022/07/11 06:33:36;;;;;;;15.93;9.10;;;21.30;68.20;;;;;;5052121;28;20276;-89
2022/07/11 06:36:04;;;;;;;18.43;10.50;;;21.40;67.90;;;;;;5046207;28;20649;-90
2022/07/11 06:38:31;;;;;;;22.73;12.10;;;21.40;68.20;;;;;;5044708;28;20218;-90
2022/07/11 06:40:59;;;;;;;19.03;10.77;;;21.50;68.50;;;;;;5041909;28;20289;-89
2022/07/11 06:43:26;;;;;;;20.00;10.73;;;21.60;68.40;;;;;;5047738;28;20689;-90
2022/07/11 06:45:56;;;;;;;12.57;8.37;;;21.60;68.20;;;;;;5048898;28;20204;-90
2022/07/11 06:48:23;;;;;;;25.17;11.43;;;21.70;68.50;;;;;;5039237;28;20212;-90
2022/07/11 06:50:50;;;;;;;13.70;8.63;;;21.70;68.40;;;;;;5047109;28;20200;-90
2022/07/11 06:53:17;;;;;;;16.70;10.27;;;21.80;68.50;;;;;;5044538;28;20612;-91
2022/07/11 06:55:44;;;;;;;14.17;8.70;;;21.80;68.60;;;;;;5049539;28;20209;-90
2022/07/11 06:58:31;;;;;;;16.40;9.23;;;21.90;68.40;;;;;;5047658;28;20247;-90
2022/07/11 07:01:00;;;;;;;15.30;8.13;;;22.00;68.60;;;;;;5048824;28;20207;-90
2022/07/11 07:03:28;;;;;;;12.30;7.47;;;22.00;68.40;;;;;;5047675;28;20218;-89
2022/07/11 07:05:55;;;;;;;13.87;7.20;;;22.10;68.10;;;;;;5047549;28;20213;-90
2022/07/11 07:08:24;;;;;;;16.00;8.27;;;22.10;68.10;;;;;;5032337;28;20272;-89
2022/07/11 07:10:53;;;;;;;12.23;7.20;;;22.20;68.40;;;;;;5044180;28;20986;-89
2022/07/11 07:13:23;;;;;;;18.27;8.40;;;22.30;68.60;;;;;;5046707;28;20678;-89
2022/07/11 07:15:50;;;;;;;12.93;7.17;;;22.30;68.20;;;;;;5048173;28;20487;-90
2022/07/11 07:18:26;;;;;;;8.17;5.80;;;22.40;68.30;;;;;;5052427;28;20236;-95
2022/07/11 07:21:15;;;;;;;10.37;6.07;;;22.40;68.30;;;;;;5062183;28;20755;-95
2022/07/11 07:23:42;;;;;;;10.50;6.67;;;22.50;68.50;;;;;;5141139;22;20274;-93
2022/07/11 07:26:17;;;;;;;11.30;6.43;;;22.50;68.20;;;;;;5059877;28;20207;-94
2022/07/11 07:28:45;;;;;;;8.20;5.80;;;22.60;68.50;;;;;;5066452;28;20204;-93
2022/07/11 07:31:13;;;;;;;10.93;6.60;;;22.70;68.00;;;;;;5051474;28;20737;-91
2022/07/11 07:33:43;;;;;;;10.17;6.47;;;22.70;69.00;;;;;;5051262;28;20294;-91
2022/07/11 07:36:10;;;;;;;16.73;8.07;;;22.80;68.40;;;;;;5051786;28;20227;-88
2022/07/11 07:38:38;;;;;;;11.93;6.20;;;22.80;67.90;;;;;;5057621;28;20204;-90
2022/07/11 07:41:08;;;;;;;13.03;6.90;;;22.90;67.80;;;;;;5052768;28;20202;-90
2022/07/11 07:43:36;;;;;;;13.50;6.73;;;23.00;68.20;;;;;;5054337;28;20228;-90
2022/07/11 07:46:04;;;;;;;10.10;6.47;;;23.00;68.00;;;;;;5050045;28;20204;-89
2022/07/11 07:48:31;;;;;;;12.27;5.87;;;23.10;68.00;;;;;;5050263;28;20191;-90
2022/07/11 07:50:59;;;;;;;11.83;5.97;;;23.20;67.90;;;;;;5049211;28;20245;-88
2022/07/11 07:53:26;;;;;;;10.00;5.40;;;23.20;68.20;;;;;;5049289;28;20257;-88
2022/07/11 07:55:54;;;;;;;15.73;5.87;;;23.30;67.10;;;;;;5049132;28;20205;-88
2022/07/11 07:58:21;;;;;;;13.23;5.47;;;23.30;66.90;;;;;;5049104;28;20209;-88
2022/07/11 08:03:32;;;;;;;11.90;5.13;;;23.50;66.70;;;;;;5048913;28;20986;-90
2022/07/11 08:06:01;;;;;;;11.47;5.23;;;23.50;66.30;;;;;;5048839;28;20237;-90
2022/07/11 08:08:28;;;;;;;10.00;4.50;;;23.60;66.20;;;;;;5048906;28;20199;-90
2022/07/11 08:11:01;;;;;;;9.60;3.90;;;23.60;66.10;;;;;;5048444;28;20212;-89
2022/07/11 08:13:31;;;;;;;8.73;3.83;;;23.70;66.00;;;;;;5048501;28;20694;-89
2022/07/11 08:15:58;;;;;;;10.37;3.97;;;23.80;65.50;;;;;;5047784;28;20559;-88
2022/07/11 08:18:28;;;;;;;10.27;3.97;;;23.80;65.10;;;;;;5048631;28;20672;-88
2022/07/11 08:20:56;;;;;;;8.87;3.40;;;23.90;65.00;;;;;;5049412;28;20670;-88
2022/07/11 08:23:24;;;;;;;8.00;3.37;;;24.00;64.20;;;;;;5048058;28;20235;-88
2022/07/11 08:25:51;;;;;;;11.13;4.13;;;24.00;64.10;;;;;;5048422;28;20258;-89
2022/07/11 08:28:19;;;;;;;8.30;3.43;;;24.10;64.20;;;;;;5049664;28;20213;-92
2022/07/11 08:30:47;;;;;;;7.27;3.47;;;24.10;64.10;;;;;;5048109;28;20200;-88
2022/07/11 08:33:14;;;;;;;9.37;3.63;;;24.20;64.70;;;;;;5048561;28;20235;-89
2022/07/11 08:35:41;;;;;;;8.10;3.27;;;24.20;64.00;;;;;;5045145;28;20294;-88
2022/07/11 08:38:08;;;;;;;6.30;3.00;;;24.40;64.40;;;;;;5053481;28;20208;-87
2022/07/11 08:40:38;;;;;;;7.27;3.27;;;24.40;64.20;;;;;;5052980;28;20257;-88
2022/07/11 08:43:13;;;;;;;5.50;2.60;;;24.50;64.00;;;;;;5051064;28;20606;-88
2022/07/11 08:45:41;;;;;;;12.80;4.67;;;24.70;64.00;;;;;;5047166;28;20291;-89
2022/07/11 08:48:14;;;;;;;9.17;3.83;;;24.80;64.10;;;;;;5028239;28;20717;-89
2022/07/11 08:50:42;;;;;;;8.80;3.17;;;25.00;63.90;;;;;;5028286;28;20212;-88
2022/07/11 08:53:11;;;;;;;7.40;3.33;;;25.10;63.70;;;;;;5047688;28;20254;-88
2022/07/11 08:55:40;;;;;;;8.90;3.50;;;25.30;63.70;;;;;;5051541;28;20196;-87
2022/07/11 08:58:08;;;;;;;8.37;3.50;;;25.60;63.60;;;;;;5055022;28;20262;-87
2022/07/11 09:00:36;;;;;;;7.57;3.47;;;25.80;62.80;;;;;;5056552;28;20192;-87
2022/07/11 09:03:05;;;;;;;6.50;3.23;;;26.00;62.20;;;;;;5049868;28;20252;-89
2022/07/11 09:05:33;;;;;;;6.83;3.23;;;26.30;61.30;;;;;;5048396;28;20254;-89
2022/07/11 09:08:00;;;;;;;12.27;4.13;;;26.50;61.60;;;;;;5047778;28;20678;-89
2022/07/11 09:10:27;;;;;;;8.80;3.63;;;26.80;61.10;;;;;;5047630;28;20283;-89
2022/07/11 09:13:04;;;;;;;9.90;3.50;;;27.00;61.30;;;;;;5047484;28;20591;-89
2022/07/11 09:15:36;;;;;;;10.10;3.77;;;27.20;59.60;;;;;;5047481;28;20200;-89
2022/07/11 09:18:04;;;;;;;5.97;2.77;;;27.50;59.60;;;;;;5047316;28;20283;-89
2022/07/11 09:26:21;;;;;;;6.60;3.33;;;28.20;59.10;;;;;;5047276;28;20206;-89
2022/07/11 09:29:01;;;;;;;11.90;5.23;;;28.40;58.60;;;;;;5045299;28;20290;-90
2022/07/11 09:31:29;;;;;;;11.60;4.50;;;28.60;56.60;;;;;;5045089;28;20200;-91
2022/07/11 09:34:04;;;;;;;7.03;3.03;;;28.80;57.50;;;;;;5035290;28;20571;-91
2022/07/11 09:36:39;;;;;;;6.40;3.47;;;29.00;56.50;;;;;;5026936;28;20311;-93
2022/07/11 09:39:07;;;;;;;7.63;3.10;;;29.10;56.00;;;;;;5027475;28;20301;-89
2022/07/11 09:41:35;;;;;;;8.47;3.60;;;29.30;55.80;;;;;;5028371;28;20193;-91
2022/07/11 09:44:18;;;;;;;6.87;3.07;;;29.40;55.60;;;;;;5027535;28;20212;-91
2022/07/11 09:46:47;;;;;;;8.73;4.00;;;29.60;54.10;;;;;;5042450;28;20302;-90
2022/07/11 09:49:19;;;;;;;4.10;2.33;;;29.70;55.40;;;;;;5043572;28;20961;-90
2022/07/11 09:51:51;;;;;;;9.90;4.63;;;29.80;55.10;;;;;;5044788;28;20656;-91
2022/07/11 09:54:19;;;;;;;7.30;2.88;;;30.00;54.00;;;;;;5046621;28;20208;-92
2022/07/11 09:56:51;;;;;;;5.82;3.05;;;30.10;54.80;;;;;;5047251;28;20207;-91
2022/07/11 09:59:23;;;;;;;7.17;3.13;;;30.20;54.30;;;;;;5038094;28;20313;-89
2022/07/11 10:01:50;;;;;;;7.50;3.17;;;30.30;53.60;;;;;;5039546;28;20204;-90
2022/07/11 10:04:17;;;;;;;11.10;5.03;;;30.50;53.80;;;;;;5045054;28;20295;-90
2022/07/11 10:06:44;;;;;;;6.57;3.03;;;30.50;53.10;;;;;;5039567;28;20540;-91
2022/07/11 10:09:12;;;;;;;8.95;4.28;;;30.70;53.30;;;;;;5043014;28;20229;-89
2022/07/11 10:11:42;;;;;;;11.52;5.40;;;30.70;52.80;;;;;;5043236;28;20278;-88
2022/07/11 10:14:09;;;;;;;9.43;3.83;;;30.80;52.70;;;;;;5046957;28;20301;-89
2022/07/11 10:16:49;;;;;;;8.20;4.03;;;30.90;52.60;;;;;;5045260;28;21037;-89
2022/07/11 10:19:26;;;;;;;7.68;3.08;;;31.10;51.60;;;;;;5046927;28;20294;-88
2022/07/11 10:22:03;;;;;;;8.48;3.92;;;31.10;51.60;;;;;;5044787;28;20261;-89
2022/07/11 10:24:39;;;;;;;8.30;4.03;;;31.30;50.50;;;;;;5031670;28;20291;-90
2022/07/11 10:27:15;;;;;;;7.28;3.30;;;31.30;50.50;;;;;;5046806;28;20235;-89
2022/07/11 10:29:49;;;;;;;13.73;5.00;;;31.40;50.80;;;;;;5047227;28;20199;-91
2022/07/11 10:32:19;;;;;;;6.20;3.03;;;31.50;50.40;;;;;;5046123;28;20277;-89
2022/07/11 10:34:47;;;;;;;7.40;3.80;;;31.60;50.70;;;;;;5044271;28;20246;-91
2022/07/11 10:37:15;;;;;;;8.27;3.83;;;31.60;51.10;;;;;;5043264;28;20205;-90
2022/07/11 10:42:21;;;;;;;5.88;2.88;;;31.80;49.40;;;;;;5204837;22;20258;-90
2022/07/11 10:44:50;;;;;;;7.53;3.28;;;31.90;49.70;;;;;;5043811;28;20291;-89
2022/07/11 10:47:42;;;;;;;5.60;3.00;;;32.00;50.00;;;;;;5047892;28;20218;-93
2022/07/11 10:50:22;;;;;;;7.45;3.45;;;32.10;49.20;;;;;;5039441;28;20236;-89
2022/07/11 10:52:50;;;;;;;15.75;5.25;;;32.10;48.90;;;;;;5049707;28;20236;-90
2022/07/11 10:55:35;;;;;;;10.77;4.18;;;32.20;49.60;;;;;;5036621;28;20240;-90
2022/07/11 10:58:20;;;;;;;8.02;3.88;;;32.30;48.70;;;;;;5035853;28;20200;-89
2022/07/11 11:00:49;;;;;;;8.15;3.65;;;32.40;48.40;;;;;;5051024;28;20275;-89
2022/07/11 11:03:19;;;;;;;6.05;3.25;;;32.40;49.00;;;;;;5048938;28;20291;-90
2022/07/11 11:05:49;;;;;;;6.45;3.45;;;32.50;48.60;;;;;;5047766;28;20206;-92
2022/07/11 11:08:44;;;;;;;10.27;3.13;;;32.60;48.40;;;;;;5047279;28;20566;-90
2022/07/11 11:11:38;;;;;;;8.60;2.83;;;32.70;47.00;;;;;;5030821;28;20287;-89
2022/07/11 11:14:27;;;;;;;8.02;3.55;;;32.80;46.20;;;;;;5045752;28;20281;-88
2022/07/11 11:17:50;;;;;;;5.40;2.95;;;32.80;46.20;;;;;;5055377;28;20192;-90
2022/07/11 11:20:34;;;;;;;10.57;4.53;;;32.90;46.30;;;;;;4989681;28;20259;-91
2022/07/11 11:23:10;;;;;;;5.20;2.70;;;33.00;45.40;;;;;;4968683;28;20207;-91
2022/07/11 11:25:37;;;;;;;8.43;3.90;;;33.00;45.70;;;;;;5007542;28;20397;-90
2022/07/11 11:28:06;;;;;;;7.00;3.72;;;33.10;46.40;;;;;;5048078;28;20192;-90
2022/07/11 11:30:33;;;;;;;7.43;3.25;;;33.10;46.40;;;;;;5050563;28;20555;-89
2022/07/11 11:33:00;;;;;;;8.18;3.08;;;33.20;45.60;;;;;;5050767;28;20277;-91
2022/07/11 11:35:27;;;;;;;7.88;3.78;;;33.20;45.50;;;;;;5055653;28;20704;-89
2022/07/11 11:37:57;;;;;;;3.65;2.10;;;33.40;45.30;;;;;;5057997;28;20431;-90
2022/07/11 11:40:24;;;;;;;5.88;3.00;;;33.40;44.80;;;;;;5049089;28;20203;-90
2022/07/11 11:42:51;;;;;;;6.07;3.13;;;33.40;45.20;;;;;;5051576;28;20200;-91
2022/07/11 11:45:21;;;;;;;5.93;2.92;;;33.50;45.10;;;;;;5050432;28;20213;-92
2022/07/11 11:47:51;;;;;;;11.00;4.18;;;33.50;44.80;;;;;;5049791;28;20633;-90
2022/07/11 11:50:18;;;;;;;5.13;2.85;;;33.60;44.80;;;;;;5047287;28;20295;-90
2022/07/11 11:52:46;;;;;;;8.10;3.30;;;33.60;44.80;;;;;;5049172;28;20315;-91
2022/07/11 11:55:16;;;;;;;4.97;2.60;;;33.70;44.20;;;;;;5049148;28;20936;-90
2022/07/11 11:57:44;;;;;;;16.30;4.55;;;33.80;43.80;;;;;;5047150;28;20234;-91
2022/07/11 12:00:26;;;;;;;7.38;3.83;;;33.80;44.20;;;;;;5047879;28;20251;-90
2022/07/11 12:02:53;;;;;;;9.25;3.75;;;33.80;43.30;;;;;;5045933;28;20218;-91
2022/07/11 12:05:20;;;;;;;6.25;3.25;;;33.90;44.30;;;;;;5041610;28;20324;-90
2022/07/11 12:07:49;;;;;;;7.18;3.55;;;33.90;43.80;;;;;;5049067;28;20235;-91
2022/07/11 12:10:17;;;;;;;9.48;4.53;;;34.00;43.50;;;;;;5048028;28;20270;-91
2022/07/11 12:12:43;;;;;;;6.32;3.08;;;34.00;43.40;;;;;;5046788;28;20240;-93
2022/07/11 12:18:26;;;;;;;5.68;3.17;;;34.10;42.90;;;;;;4956063;28;20500;-93
2022/07/11 12:20:53;;;;;;;6.45;3.03;;;34.10;43.60;;;;;;5033139;28;20273;-91
2022/07/11 12:23:21;;;;;;;6.03;3.22;;;34.20;43.30;;;;;;5035678;28;20239;-92
2022/07/11 12:25:50;;;;;;;5.15;2.90;;;34.30;43.30;;;;;;5037590;28;20737;-92
2022/07/11 12:28:18;;;;;;;6.72;3.67;;;34.30;42.60;;;;;;5038191;28;20197;-92
2022/07/11 12:31:07;;;;;;;6.70;3.60;;;34.30;42.90;;;;;;5039226;28;21243;-93
2022/07/11 12:33:34;;;;;;;5.95;3.10;;;34.40;41.80;;;;;;5037011;28;20573;-91
2022/07/11 12:36:04;;;;;;;12.65;5.65;;;34.50;42.50;;;;;;5035343;28;20281;-92
2022/07/11 12:38:51;;;;;;;6.93;3.88;;;34.50;42.50;;;;;;5044349;22;20227;-91
2022/07/11 12:41:19;;;;;;;5.47;3.35;;;34.50;41.20;;;;;;5037592;28;20204;-91
2022/07/11 12:46:34;;;;;;;7.00;3.63;;;34.50;42.10;;;;;;5038278;28;20211;-92
2022/07/11 12:49:08;;;;;;;13.90;7.05;;;34.60;42.30;;;;;;5035905;28;20637;-92
2022/07/11 12:51:39;;;;;;;6.55;3.63;;;34.50;41.60;;;;;;5037922;28;20205;-93
2022/07/11 12:54:09;;;;;;;5.78;2.90;;;34.60;41.40;;;;;;5037769;28;20235;-91
2022/07/11 12:56:54;;;;;;;13.27;6.53;;;34.60;41.80;;;;;;5037089;28;20283;-93
2022/07/11 12:59:27;;;;;;;7.28;2.95;;;34.70;41.40;;;;;;5038460;28;20242;-91
2022/07/11 13:02:03;;;;;;;5.53;3.05;;;34.70;41.20;;;;;;5037844;28;20265;-91
2022/07/11 13:04:32;;;;;;;5.53;3.10;;;34.70;40.90;;;;;;5037964;28;20298;-92
2022/07/11 13:09:46;;;;;;;9.00;4.35;;;34.80;40.80;;;;;;5033057;28;20204;-93
2022/07/11 13:12:16;;;;;;;9.63;3.25;;;34.90;40.40;;;;;;5036940;28;20677;-92
2022/07/11 13:17:29;;;;;;;5.60;3.50;;;34.90;41.10;;;;;;5037735;28;20215;-93